createdAt,value
2022-09-11T00:00:50.470Z,15.68
2022-09-11T00:01:52.792Z,15.67
2022-09-11T00:02:55.136Z,15.68
2022-09-11T00:03:57.640Z,15.67
2022-09-11T00:04:59.788Z,15.66
2022-09-11T00:06:07.853Z,15.65
2022-09-11T00:07:10.076Z,15.66
2022-09-11T00:08:14.723Z,15.64
2022-09-11T00:09:16.862Z,15.64
2022-09-11T00:10:19.156Z,15.64
2022-09-11T00:11:22.727Z,15.63
2022-09-11T00:12:24.857Z,15.62
2022-09-11T00:13:27.032Z,15.63
2022-09-11T00:14:29.782Z,15.62
2022-09-11T00:15:37.010Z,15.61
2022-09-11T00:16:41.637Z,15.60
2022-09-11T00:17:43.779Z,15.60
2022-09-11T00:18:46.945Z,15.59
2022-09-11T00:19:49.106Z,15.59
2022-09-11T00:20:56.589Z,15.57
2022-09-11T00:21:58.692Z,15.56
2022-09-11T00:23:04.021Z,15.56
2022-09-11T00:24:08.963Z,15.54
2022-09-11T00:25:11.094Z,15.55
2022-09-11T00:26:13.226Z,15.53
2022-09-11T00:27:16.524Z,15.52
2022-09-11T00:28:22.217Z,15.52
2022-09-11T00:29:24.460Z,15.51
2022-09-11T00:30:27.214Z,15.50
2022-09-11T00:31:30.560Z,15.49
2022-09-11T00:32:33.833Z,15.47
2022-09-11T00:33:36.320Z,15.47
2022-09-11T00:34:39.299Z,15.46
2022-09-11T00:35:42.362Z,15.45
2022-09-11T00:36:44.654Z,15.43
2022-09-11T00:37:48.399Z,15.42
2022-09-11T00:38:53.850Z,15.41
2022-09-11T00:39:56.033Z,15.41
2022-09-11T00:41:02.217Z,15.39
2022-09-11T00:42:05.514Z,15.38
2022-09-11T00:43:10.111Z,15.38
2022-09-11T00:44:12.957Z,15.36
2022-09-11T00:45:25.845Z,15.35
2022-09-11T00:46:59.365Z,15.34
2022-09-11T00:48:02.085Z,15.31
2022-09-11T00:49:12.211Z,15.30
2022-09-11T00:50:19.652Z,15.30
2022-09-11T00:51:25.673Z,15.29
2022-09-11T00:52:33.297Z,15.28
2022-09-11T00:53:37.892Z,15.27
2022-09-11T00:55:06.606Z,15.24
2022-09-11T00:56:11.066Z,15.23
2022-09-11T00:57:13.415Z,15.23
2022-09-11T00:58:21.345Z,15.22
2022-09-11T00:59:27.865Z,15.21
2022-09-11T01:00:30.239Z,15.21
2022-09-11T01:01:33.432Z,15.21
2022-09-11T01:02:38.670Z,15.18
2022-09-11T01:03:42.424Z,15.18
2022-09-11T01:04:45.514Z,15.17
2022-09-11T01:05:48.382Z,15.15
2022-09-11T01:06:54.867Z,15.14
2022-09-11T01:07:57.015Z,15.13
2022-09-11T01:08:59.407Z,15.12
2022-09-11T01:10:03.751Z,15.13
2022-09-11T01:11:34.128Z,15.09
2022-09-11T01:12:47.801Z,15.09
2022-09-11T01:13:55.839Z,15.07
2022-09-11T01:15:04.046Z,15.06
2022-09-11T01:16:39.544Z,15.04
2022-09-11T01:18:11.326Z,15.02
2022-09-11T01:19:47.824Z,15.01
2022-09-11T01:21:02.159Z,15.01
2022-09-11T01:22:28.603Z,14.98
2022-09-11T01:23:55.457Z,14.95
2022-09-11T01:25:17.514Z,14.93
2022-09-11T01:26:42.710Z,14.92
2022-09-11T01:27:50.368Z,14.90
2022-09-11T01:28:59.993Z,14.89
2022-09-11T01:30:24.624Z,14.88
2022-09-11T01:31:36.610Z,14.85
2022-09-11T01:33:23.037Z,14.82
2022-09-11T01:34:42.869Z,14.81
2022-09-11T01:35:55.714Z,14.80
2022-09-11T01:37:04.469Z,14.79
2022-09-11T01:38:15.627Z,14.78
2022-09-11T01:39:23.164Z,14.75
2022-09-11T01:40:36.896Z,14.74
2022-09-11T01:41:47.464Z,14.73
2022-09-11T01:42:55.680Z,14.74
2022-09-11T01:44:07.192Z,14.71
2022-09-11T01:45:12.834Z,14.71
2022-09-11T01:46:23.360Z,14.70
2022-09-11T01:47:29.101Z,14.71
2022-09-11T01:48:44.019Z,14.71
2022-09-11T01:49:51.993Z,14.68
2022-09-11T01:51:00.096Z,14.68
2022-09-11T01:52:15.325Z,14.66
2022-09-11T01:53:22.329Z,14.65
2022-09-11T01:54:31.195Z,14.64
2022-09-11T01:55:50.115Z,14.63
2022-09-11T01:57:02.366Z,14.63
2022-09-11T01:58:11.172Z,14.62
2022-09-11T01:59:24.284Z,14.62
2022-09-11T02:00:30.188Z,14.61
2022-09-11T02:01:35.885Z,14.60
2022-09-11T02:02:53.772Z,14.59
2022-09-11T02:04:07.263Z,14.60
2022-09-11T02:05:23.439Z,14.57
2022-09-11T02:06:33.725Z,14.59
2022-09-11T02:07:43.864Z,14.57
2022-09-11T02:09:02.704Z,14.56
2022-09-11T02:10:15.352Z,14.55
2022-09-11T02:11:18.620Z,14.54
2022-09-11T02:12:27.229Z,14.54
2022-09-11T02:13:55.350Z,14.53
2022-09-11T02:14:57.735Z,14.53
2022-09-11T02:16:13.004Z,14.53
2022-09-11T02:17:43.316Z,14.52
2022-09-11T02:19:09.327Z,14.51
2022-09-11T02:20:11.584Z,14.52
2022-09-11T02:21:13.776Z,14.52
2022-09-11T02:22:15.976Z,14.52
2022-09-11T02:23:18.473Z,14.51
2022-09-11T02:24:23.215Z,14.52
2022-09-11T02:25:25.512Z,14.50
2022-09-11T02:26:35.146Z,14.49
2022-09-11T02:27:37.383Z,14.49
2022-09-11T02:28:39.689Z,14.49
2022-09-11T02:29:43.097Z,14.49
2022-09-11T02:30:45.534Z,14.49
2022-09-11T02:31:49.389Z,14.48
2022-09-11T02:32:55.101Z,14.49
2022-09-11T02:33:57.988Z,14.48
2022-09-11T02:35:00.953Z,14.48
2022-09-11T02:36:19.042Z,14.48
2022-09-11T02:38:06.614Z,14.46
2022-09-11T02:39:37.453Z,14.47
2022-09-11T02:40:53.159Z,14.46
2022-09-11T02:42:08.363Z,14.46
2022-09-11T02:43:25.033Z,14.45
2022-09-11T02:44:45.329Z,14.44
2022-09-11T02:46:05.767Z,14.44
2022-09-11T02:47:24.782Z,14.43
2022-09-11T02:48:49.439Z,14.43
2022-09-11T02:50:19.260Z,14.41
2022-09-11T02:51:32.972Z,14.42
2022-09-11T02:52:50.789Z,14.39
2022-09-11T02:53:56.112Z,14.39
2022-09-11T02:55:25.466Z,14.40
2022-09-11T02:56:30.754Z,14.37
2022-09-11T02:57:39.661Z,14.36
2022-09-11T02:59:20.720Z,14.35
2022-09-11T03:00:22.897Z,14.35
2022-09-11T03:01:25.650Z,14.34
2022-09-11T03:02:34.029Z,14.33
2022-09-11T03:03:40.478Z,14.32
2022-09-11T03:04:43.393Z,14.32
2022-09-11T03:05:45.590Z,14.31
2022-09-11T03:06:50.045Z,14.31
2022-09-11T03:07:52.951Z,14.30
2022-09-11T03:08:55.859Z,14.30
2022-09-11T03:09:58.766Z,14.29
2022-09-11T03:11:00.907Z,14.28
2022-09-11T03:12:04.592Z,14.28
2022-09-11T03:13:09.713Z,14.27
2022-09-11T03:14:12.470Z,14.25
2022-09-11T03:15:16.862Z,14.26
2022-09-11T03:16:20.673Z,14.25
2022-09-11T03:17:25.524Z,14.24
2022-09-11T03:18:27.702Z,14.24
2022-09-11T03:19:30.688Z,14.22
2022-09-11T03:20:34.277Z,14.23
2022-09-11T03:21:37.199Z,14.22
2022-09-11T03:22:39.851Z,14.21
2022-09-11T03:23:42.175Z,14.19
2022-09-11T03:24:45.174Z,14.19
2022-09-11T03:25:48.129Z,14.19
2022-09-11T03:26:50.386Z,14.18
2022-09-11T03:27:53.022Z,14.19
2022-09-11T03:28:55.960Z,14.18
2022-09-11T03:29:58.747Z,14.17
2022-09-11T03:31:01.037Z,14.16
2022-09-11T03:32:03.240Z,14.15
2022-09-11T03:33:05.484Z,14.14
2022-09-11T03:34:09.257Z,14.14
2022-09-11T03:35:11.522Z,14.13
2022-09-11T03:36:14.902Z,14.13
2022-09-11T03:37:18.254Z,14.11
2022-09-11T03:38:21.123Z,14.12
2022-09-11T03:39:23.380Z,14.11
2022-09-11T03:40:26.429Z,14.10
2022-09-11T03:41:28.644Z,14.10
2022-09-11T03:42:31.238Z,14.09
2022-09-11T03:43:33.698Z,14.08
2022-09-11T03:44:35.910Z,14.08
2022-09-11T03:45:39.100Z,14.07
2022-09-11T03:46:43.835Z,14.07
2022-09-11T03:47:45.971Z,14.05
2022-09-11T03:48:48.196Z,14.05
2022-09-11T03:49:50.422Z,14.04
2022-09-11T03:50:52.791Z,14.03
2022-09-11T03:51:56.189Z,14.03
2022-09-11T03:52:59.004Z,14.01
2022-09-11T03:54:03.866Z,14.00
2022-09-11T03:55:07.454Z,13.98
2022-09-11T03:56:10.073Z,13.97
2022-09-11T03:57:17.571Z,13.97
2022-09-11T03:58:19.802Z,13.96
2022-09-11T03:59:22.227Z,13.94
2022-09-11T04:00:29.738Z,13.94
2022-09-11T04:01:32.737Z,13.93
2022-09-11T04:02:37.454Z,13.92
2022-09-11T04:03:40.583Z,13.91
2022-09-11T04:04:44.763Z,13.90
2022-09-11T04:05:58.902Z,13.89
2022-09-11T04:07:01.041Z,13.88
2022-09-11T04:08:05.372Z,13.88
2022-09-11T04:09:09.149Z,13.86
2022-09-11T04:10:11.573Z,13.85
2022-09-11T04:11:14.406Z,13.85
2022-09-11T04:12:16.770Z,13.83
2022-09-11T04:13:18.965Z,13.81
2022-09-11T04:14:22.678Z,13.82
2022-09-11T04:15:25.930Z,13.80
2022-09-11T04:16:32.903Z,13.80
2022-09-11T04:17:35.622Z,13.79
2022-09-11T04:18:39.847Z,13.78
2022-09-11T04:19:42.346Z,13.77
2022-09-11T04:20:45.628Z,13.76
2022-09-11T04:21:47.955Z,13.76
2022-09-11T04:22:52.973Z,13.75
2022-09-11T04:23:56.651Z,13.76
2022-09-11T04:25:02.186Z,13.74
2022-09-11T04:26:16.868Z,13.74
2022-09-11T04:27:23.640Z,13.74
2022-09-11T04:28:28.925Z,13.73
2022-09-11T04:29:32.610Z,13.72
2022-09-11T04:30:39.545Z,13.71
2022-09-11T04:31:41.744Z,13.70
2022-09-11T04:32:46.357Z,13.69
2022-09-11T04:33:49.010Z,13.69
2022-09-11T04:34:51.419Z,13.68
2022-09-11T04:35:53.609Z,13.68
2022-09-11T04:36:56.323Z,13.69
2022-09-11T04:37:59.096Z,13.67
2022-09-11T04:39:01.430Z,13.67
2022-09-11T04:40:06.017Z,13.66
2022-09-11T04:41:10.601Z,13.66
2022-09-11T04:42:12.731Z,13.66
2022-09-11T04:43:17.826Z,13.66
2022-09-11T04:44:20.814Z,13.64
2022-09-11T04:45:23.891Z,13.66
2022-09-11T04:46:28.178Z,13.65
2022-09-11T04:47:30.379Z,13.65
2022-09-11T04:48:32.724Z,13.66
2022-09-11T04:49:35.332Z,13.65
2022-09-11T04:50:38.175Z,13.65
2022-09-11T04:51:50.100Z,13.65
2022-09-11T04:52:55.194Z,13.64
2022-09-11T04:53:59.237Z,13.65
2022-09-11T04:55:07.164Z,13.65
2022-09-11T04:56:15.069Z,13.66
2022-09-11T04:57:21.251Z,13.67
2022-09-11T04:58:23.478Z,13.67
2022-09-11T04:59:26.669Z,13.67
2022-09-11T05:00:41.141Z,13.68
2022-09-11T05:01:44.768Z,13.69
2022-09-11T05:02:48.178Z,13.67
2022-09-11T05:03:50.362Z,13.70
2022-09-11T05:04:52.511Z,13.70
2022-09-11T05:05:54.744Z,13.71
2022-09-11T05:06:56.874Z,13.72
2022-09-11T05:07:59.917Z,13.74
2022-09-11T05:09:04.858Z,13.73
2022-09-11T05:10:10.993Z,13.75
2022-09-11T05:11:15.462Z,13.77
2022-09-11T05:12:17.816Z,13.79
2022-09-11T05:13:20.040Z,13.79
2022-09-11T05:14:22.612Z,13.81
2022-09-11T05:15:26.523Z,13.83
2022-09-11T05:16:30.316Z,13.86
2022-09-11T05:17:34.317Z,13.90
2022-09-11T05:18:38.438Z,13.92
2022-09-11T05:19:40.874Z,13.95
2022-09-11T05:20:44.078Z,13.99
2022-09-11T05:21:48.247Z,14.02
2022-09-11T05:22:51.582Z,14.06
2022-09-11T05:23:55.879Z,14.08
2022-09-11T05:24:58.480Z,14.11
2022-09-11T05:26:05.213Z,14.14
2022-09-11T05:27:08.573Z,14.16
2022-09-11T05:28:11.860Z,14.20
2022-09-11T05:29:15.749Z,14.23
2022-09-11T05:30:23.178Z,14.25
2022-09-11T05:31:26.242Z,14.28
2022-09-11T05:32:28.991Z,14.30
2022-09-11T05:33:31.131Z,14.33
2022-09-11T05:34:34.622Z,14.36
2022-09-11T05:35:36.847Z,14.37
2022-09-11T05:36:39.024Z,14.40
2022-09-11T05:37:41.775Z,14.41
2022-09-11T05:38:45.355Z,14.44
2022-09-11T05:39:47.576Z,14.46
2022-09-11T05:40:52.118Z,14.48
2022-09-11T05:41:56.955Z,14.49
2022-09-11T05:43:03.745Z,14.53
2022-09-11T05:44:06.414Z,14.55
2022-09-11T05:45:09.656Z,14.57
2022-09-11T05:46:14.399Z,14.60
2022-09-11T05:47:16.524Z,14.61
2022-09-11T05:48:20.989Z,14.62
2022-09-11T05:49:25.667Z,14.63
2022-09-11T05:50:27.924Z,14.66
2022-09-11T05:51:30.125Z,14.68
2022-09-11T05:52:35.053Z,14.70
2022-09-11T05:53:38.202Z,14.72
2022-09-11T05:54:42.506Z,14.76
2022-09-11T05:55:46.013Z,14.79
2022-09-11T05:56:48.250Z,14.81
2022-09-11T05:57:57.945Z,14.86
2022-09-11T05:59:00.325Z,14.89
2022-09-11T06:00:09.284Z,14.93
2022-09-11T06:01:27.960Z,14.98
2022-09-11T06:02:42.107Z,15.04
2022-09-11T06:03:44.989Z,15.09
2022-09-11T06:04:48.901Z,15.14
2022-09-11T06:05:53.341Z,15.19
2022-09-11T06:06:55.618Z,15.25
2022-09-11T06:07:58.211Z,15.29
2022-09-11T06:09:00.523Z,15.35
2022-09-11T06:10:03.526Z,15.41
2022-09-11T06:11:07.782Z,15.47
2022-09-11T06:12:12.494Z,15.53
2022-09-11T06:13:19.005Z,15.59
2022-09-11T06:14:22.971Z,15.63
2022-09-11T06:15:45.664Z,15.69
2022-09-11T06:16:49.273Z,15.74
2022-09-11T06:17:51.846Z,15.78
2022-09-11T06:18:54.737Z,15.80
2022-09-11T06:19:57.168Z,15.84
2022-09-11T06:21:02.623Z,15.87
2022-09-11T06:22:11.807Z,15.89
2022-09-11T06:23:17.124Z,15.93
2022-09-11T06:24:19.692Z,15.95
2022-09-11T06:25:21.858Z,15.97
2022-09-11T06:26:26.614Z,15.98
2022-09-11T06:27:29.129Z,16.00
2022-09-11T06:28:31.579Z,16.01
2022-09-11T06:29:35.002Z,16.04
2022-09-11T06:30:37.816Z,16.04
2022-09-11T06:31:39.977Z,16.04
2022-09-11T06:32:42.375Z,16.04
2022-09-11T06:33:45.948Z,16.04
2022-09-11T06:34:48.220Z,16.05
2022-09-11T06:36:05.556Z,16.05
2022-09-11T06:37:07.934Z,16.04
2022-09-11T06:38:10.205Z,16.05
2022-09-11T06:39:12.390Z,16.05
2022-09-11T06:40:14.784Z,16.05
2022-09-11T06:41:18.041Z,16.05
2022-09-11T06:42:22.609Z,16.06
2022-09-11T06:43:25.807Z,16.06
2022-09-11T06:44:30.869Z,16.07
2022-09-11T06:45:35.742Z,16.07
2022-09-11T06:46:39.804Z,16.08
2022-09-11T06:47:44.937Z,16.08
2022-09-11T06:48:50.291Z,16.09
2022-09-11T06:49:57.980Z,16.09
2022-09-11T06:51:13.547Z,16.10
2022-09-11T06:52:15.734Z,16.11
2022-09-11T06:53:25.495Z,16.12
2022-09-11T06:54:29.504Z,16.12
2022-09-11T06:55:33.582Z,16.13
2022-09-11T06:56:42.193Z,16.14
2022-09-11T06:57:44.726Z,16.16
2022-09-11T06:58:51.961Z,16.18
2022-09-11T06:59:58.138Z,16.19
2022-09-11T07:01:08.696Z,16.19
2022-09-11T07:02:11.335Z,16.22
2022-09-11T07:03:15.223Z,16.23
2022-09-11T07:04:17.364Z,16.28
2022-09-11T07:05:20.150Z,16.30
2022-09-11T07:06:26.641Z,16.33
2022-09-11T07:07:34.083Z,16.37
2022-09-11T07:08:36.247Z,16.41
2022-09-11T07:09:40.635Z,16.44
2022-09-11T07:10:45.365Z,16.46
2022-09-11T07:11:47.628Z,16.51
2022-09-11T07:12:55.961Z,16.54
2022-09-11T07:13:59.115Z,16.58
2022-09-11T07:15:01.501Z,16.62
2022-09-11T07:16:08.949Z,16.67
2022-09-11T07:17:13.581Z,16.70
2022-09-11T07:18:19.284Z,16.73
2022-09-11T07:19:24.941Z,16.77
2022-09-11T07:20:27.229Z,16.80
2022-09-11T07:21:29.962Z,16.85
2022-09-11T07:22:36.376Z,16.88
2022-09-11T07:23:40.455Z,16.92
2022-09-11T07:24:42.709Z,16.95
2022-09-11T07:25:45.839Z,17.01
2022-09-11T07:26:48.336Z,17.06
2022-09-11T07:28:02.462Z,17.11
2022-09-11T07:29:05.236Z,17.19
2022-09-11T07:30:08.455Z,17.25
2022-09-11T07:31:20.725Z,17.31
2022-09-11T07:32:23.665Z,17.36
2022-09-11T07:33:27.640Z,17.39
2022-09-11T07:34:36.871Z,17.43
2022-09-11T07:35:42.819Z,17.48
2022-09-11T07:36:45.721Z,17.52
2022-09-11T07:37:50.852Z,17.56
2022-09-11T07:38:54.931Z,17.58
2022-09-11T07:39:58.933Z,17.62
2022-09-11T07:41:03.950Z,17.65
2022-09-11T07:42:09.445Z,17.68
2022-09-11T07:43:13.602Z,17.70
2022-09-11T07:44:18.976Z,17.73
2022-09-11T07:45:22.908Z,17.76
2022-09-11T07:46:26.963Z,17.81
2022-09-11T07:47:31.067Z,17.85
2022-09-11T07:48:33.329Z,17.90
2022-09-11T07:49:35.535Z,17.93
2022-09-11T07:50:39.223Z,17.97
2022-09-11T07:51:42.765Z,18.01
2022-09-11T07:52:47.013Z,18.04
2022-09-11T07:53:52.167Z,18.07
2022-09-11T07:54:54.975Z,18.10
2022-09-11T07:56:03.638Z,18.13
2022-09-11T07:57:06.029Z,18.16
2022-09-11T07:58:08.861Z,18.18
2022-09-11T07:59:12.793Z,18.22
2022-09-11T08:00:18.879Z,18.23
2022-09-11T08:01:27.148Z,18.26
2022-09-11T08:02:29.306Z,18.28
2022-09-11T08:03:35.922Z,18.33
2022-09-11T08:04:38.775Z,18.37
2022-09-11T08:05:41.074Z,18.39
2022-09-11T08:06:46.473Z,18.44
2022-09-11T08:08:03.127Z,18.47
2022-09-11T08:09:08.969Z,18.50
2022-09-11T08:10:27.227Z,18.52
2022-09-11T08:11:32.401Z,18.54
2022-09-11T08:12:34.779Z,18.54
2022-09-11T08:13:37.509Z,18.55
2022-09-11T08:14:39.836Z,18.53
2022-09-11T08:15:55.318Z,18.53
2022-09-11T08:16:57.618Z,18.51
2022-09-11T08:18:02.770Z,18.49
2022-09-11T08:19:06.357Z,18.46
2022-09-11T08:20:09.618Z,18.45
2022-09-11T08:21:15.936Z,18.41
2022-09-11T08:22:18.105Z,18.40
2022-09-11T08:23:22.617Z,18.37
2022-09-11T08:24:27.438Z,18.35
2022-09-11T08:25:38.849Z,18.35
2022-09-11T08:26:46.809Z,18.31
2022-09-11T08:27:55.026Z,18.28
2022-09-11T08:29:00.039Z,18.27
2022-09-11T08:30:06.247Z,18.24
2022-09-11T08:31:09.901Z,18.21
2022-09-11T08:32:13.656Z,18.19
2022-09-11T08:33:16.329Z,18.16
2022-09-11T08:34:21.848Z,18.12
2022-09-11T08:35:24.339Z,18.08
2022-09-11T08:36:27.691Z,18.05
2022-09-11T08:37:31.663Z,18.02
2022-09-11T08:38:34.789Z,17.99
2022-09-11T08:39:37.043Z,17.98
2022-09-11T08:40:41.881Z,17.94
2022-09-11T08:41:56.567Z,17.91
2022-09-11T08:43:03.151Z,17.88
2022-09-11T08:44:05.410Z,17.85
2022-09-11T08:45:12.682Z,17.85
2022-09-11T08:46:23.977Z,17.81
2022-09-11T08:47:31.669Z,17.78
2022-09-11T08:49:14.367Z,17.73
2022-09-11T08:50:23.631Z,17.69
2022-09-11T08:51:26.799Z,17.66
2022-09-11T08:52:29.199Z,17.63
2022-09-11T08:53:33.481Z,17.61
2022-09-11T08:54:38.293Z,17.57
2022-09-11T08:55:49.338Z,17.54
2022-09-11T08:57:01.169Z,17.52
2022-09-11T08:58:25.105Z,17.49
2022-09-11T09:00:05.676Z,17.46
2022-09-11T09:01:58.893Z,17.41
2022-09-11T09:03:17.529Z,17.38
2022-09-11T09:04:35.497Z,17.36
2022-09-11T09:06:01.678Z,17.34
2022-09-11T09:07:20.227Z,17.32
2022-09-11T09:08:44.938Z,17.30
2022-09-11T09:10:16.321Z,17.29
2022-09-11T09:11:31.073Z,17.28
2022-09-11T09:13:03.860Z,17.28
2022-09-11T09:14:12.537Z,17.25
2022-09-11T09:15:33.448Z,17.26
2022-09-11T09:16:56.671Z,17.25
2022-09-11T09:18:12.648Z,17.24
2022-09-11T09:19:35.427Z,17.24
2022-09-11T09:20:47.217Z,17.24
2022-09-11T09:22:08.769Z,17.23
2022-09-11T09:23:21.108Z,17.24
2022-09-11T09:24:24.298Z,17.19
2022-09-11T09:25:29.121Z,17.18
2022-09-11T09:26:40.093Z,17.17
2022-09-11T09:27:49.489Z,17.17
2022-09-11T09:28:59.831Z,17.15
2022-09-11T09:30:13.514Z,17.12
2022-09-11T09:31:21.018Z,17.12
2022-09-11T09:32:32.357Z,17.10
2022-09-11T09:33:41.139Z,17.07
2022-09-11T09:34:50.753Z,17.08
2022-09-11T09:35:54.608Z,17.05
2022-09-11T09:37:05.027Z,17.05
2022-09-11T09:38:31.564Z,17.02
2022-09-11T09:39:36.727Z,17.00
2022-09-11T09:40:55.333Z,16.97
2022-09-11T09:42:13.416Z,16.95
2022-09-11T09:43:42.786Z,16.94
2022-09-11T09:44:51.109Z,16.92
2022-09-11T09:46:09.184Z,16.92
2022-09-11T09:47:15.428Z,16.91
2022-09-11T09:48:17.942Z,16.91
2022-09-11T09:49:26.103Z,16.91
2022-09-11T09:50:32.348Z,16.91
2022-09-11T09:51:35.492Z,16.91
2022-09-11T09:52:37.801Z,16.90
2022-09-11T09:53:46.282Z,16.91
2022-09-11T09:55:01.979Z,16.92
2022-09-11T09:56:06.165Z,16.91
2022-09-11T09:57:10.738Z,16.92
2022-09-11T09:58:13.387Z,16.92
2022-09-11T09:59:21.734Z,16.94
2022-09-11T10:00:27.063Z,16.95
2022-09-11T10:01:48.545Z,16.97
2022-09-11T10:02:54.858Z,16.99
2022-09-11T10:04:11.092Z,17.00
2022-09-11T10:05:13.731Z,16.99
2022-09-11T10:06:22.113Z,17.01
2022-09-11T10:07:27.476Z,17.02
2022-09-11T10:08:37.924Z,17.02
2022-09-11T10:09:49.504Z,17.02
2022-09-11T10:10:58.109Z,17.03
2022-09-11T10:12:12.851Z,17.02
2022-09-11T10:13:25.194Z,17.03
2022-09-11T10:14:50.380Z,17.02
2022-09-11T10:15:53.370Z,17.01
2022-09-11T10:16:55.591Z,17.01
2022-09-11T10:18:30.428Z,17.01
2022-09-11T10:19:40.575Z,17.01
2022-09-11T10:20:42.723Z,17.01
2022-09-11T10:21:44.867Z,17.00
2022-09-11T10:22:47.009Z,17.02
2022-09-11T10:23:55.020Z,17.01
2022-09-11T10:25:00.737Z,17.01
2022-09-11T10:26:05.544Z,17.01
2022-09-11T10:27:12.728Z,17.00
2022-09-11T10:28:19.526Z,17.00
2022-09-11T10:29:30.214Z,16.99
2022-09-11T10:30:36.494Z,16.99
2022-09-11T10:31:41.224Z,16.99
2022-09-11T10:32:43.436Z,16.97
2022-09-11T10:34:05.636Z,16.95
2022-09-11T10:35:11.019Z,16.95
2022-09-11T10:36:15.641Z,16.96
2022-09-11T10:37:25.395Z,16.95
2022-09-11T10:38:45.885Z,16.95
2022-09-11T10:39:49.572Z,16.96
2022-09-11T10:41:15.411Z,16.96
2022-09-11T10:42:29.458Z,16.99
2022-09-11T10:43:47.740Z,16.98
2022-09-11T10:44:52.076Z,16.97
2022-09-11T10:46:25.698Z,16.99
2022-09-11T10:47:29.956Z,16.97
2022-09-11T10:48:33.075Z,16.99
2022-09-11T10:49:35.712Z,16.99
2022-09-11T10:50:40.955Z,16.99
2022-09-11T10:51:58.711Z,16.99
2022-09-11T10:53:17.951Z,16.97
2022-09-11T10:54:34.991Z,16.96
2022-09-11T10:55:49.416Z,16.97
2022-09-11T10:57:13.449Z,16.96
2022-09-11T10:58:22.122Z,16.95
2022-09-11T10:59:34.937Z,16.94
2022-09-11T11:00:38.828Z,16.94
2022-09-11T11:01:41.170Z,16.93
2022-09-11T11:02:46.365Z,16.92
2022-09-11T11:03:48.892Z,16.91
2022-09-11T11:04:54.138Z,16.90
2022-09-11T11:06:23.820Z,16.91
2022-09-11T11:08:04.895Z,16.88
2022-09-11T11:09:39.470Z,16.87
2022-09-11T11:11:03.917Z,16.86
2022-09-11T11:12:32.879Z,16.84
2022-09-11T11:13:57.015Z,16.83
2022-09-11T11:15:01.900Z,16.81
2022-09-11T11:16:18.237Z,16.79
2022-09-11T11:17:58.620Z,16.76
2022-09-11T11:19:07.144Z,16.75
2022-09-11T11:20:47.391Z,16.72
2022-09-11T11:22:15.887Z,16.69
2022-09-11T11:23:36.064Z,16.67
2022-09-11T11:25:02.877Z,16.66
2022-09-11T11:26:31.875Z,16.65
2022-09-11T11:27:33.975Z,16.61
2022-09-11T11:28:54.812Z,16.61
2022-09-11T11:30:21.836Z,16.58
2022-09-11T11:31:36.487Z,16.55
2022-09-11T11:33:03.427Z,16.53
2022-09-11T11:34:15.625Z,16.51
2022-09-11T11:35:47.438Z,16.49
2022-09-11T11:37:10.197Z,16.47
2022-09-11T11:38:25.541Z,16.47
2022-09-11T11:39:33.451Z,16.45
2022-09-11T11:40:46.324Z,16.45
2022-09-11T11:42:13.113Z,16.44
2022-09-11T11:43:21.327Z,16.44
2022-09-11T11:44:34.560Z,16.44
2022-09-11T11:46:10.834Z,16.44
2022-09-11T11:47:16.084Z,16.44
2022-09-11T11:48:20.932Z,16.45
2022-09-11T11:49:37.109Z,16.45
2022-09-11T11:50:46.330Z,16.46
2022-09-11T11:52:00.669Z,16.47
2022-09-11T11:53:12.548Z,16.46
2022-09-11T11:54:14.804Z,16.47
2022-09-11T11:55:25.002Z,16.47
2022-09-11T11:56:42.903Z,16.49
2022-09-11T11:57:54.270Z,16.50
2022-09-11T11:59:16.369Z,16.51
2022-09-11T12:00:19.375Z,16.51
2022-09-11T12:01:29.740Z,16.52
2022-09-11T12:02:41.376Z,16.51
2022-09-11T12:04:05.047Z,16.53
2022-09-11T12:05:13.379Z,16.54
2022-09-11T12:06:15.632Z,16.54
2022-09-11T12:07:29.280Z,16.54
2022-09-11T12:08:31.460Z,16.54
2022-09-11T12:09:34.174Z,16.54
2022-09-11T12:10:39.012Z,16.54
2022-09-11T12:11:41.451Z,16.54
2022-09-11T12:12:47.883Z,16.53
2022-09-11T12:13:50.119Z,16.52
2022-09-11T12:14:56.016Z,16.51
2022-09-11T12:16:17.411Z,16.51
2022-09-11T12:17:24.924Z,16.51
2022-09-11T12:18:27.145Z,16.51
2022-09-11T12:19:29.355Z,16.49
2022-09-11T12:20:39.256Z,16.50
2022-09-11T12:21:54.839Z,16.49
2022-09-11T12:23:00.934Z,16.48
2022-09-11T12:24:03.062Z,16.47
2022-09-11T12:25:35.544Z,16.46
2022-09-11T12:26:37.680Z,16.46
2022-09-11T12:27:39.763Z,16.44
2022-09-11T12:28:45.289Z,16.45
2022-09-11T12:29:57.111Z,16.44
2022-09-11T12:31:05.170Z,16.44
2022-09-11T12:32:13.470Z,16.44
2022-09-11T12:33:51.671Z,16.43
2022-09-11T12:35:02.615Z,16.42
2022-09-11T12:36:07.864Z,16.41
2022-09-11T12:37:22.925Z,16.42
2022-09-11T12:38:28.144Z,16.40
2022-09-11T12:39:34.617Z,16.42
2022-09-11T12:40:48.769Z,16.39
2022-09-11T12:42:14.129Z,16.39
2022-09-11T12:43:20.533Z,16.39
2022-09-11T12:44:56.527Z,16.40
2022-09-11T12:45:58.949Z,16.40
2022-09-11T12:47:01.223Z,16.40
2022-09-11T12:48:07.806Z,16.41
2022-09-11T12:49:22.866Z,16.40
2022-09-11T12:50:28.370Z,16.42
2022-09-11T12:51:38.267Z,16.42
2022-09-11T12:52:51.048Z,16.45
2022-09-11T12:54:00.291Z,16.44
2022-09-11T12:55:10.513Z,16.46
2022-09-11T12:56:26.115Z,16.48
2022-09-11T12:57:35.289Z,16.49
2022-09-11T12:58:44.080Z,16.51
2022-09-11T12:59:53.355Z,16.54
2022-09-11T13:01:15.230Z,16.55
2022-09-11T13:02:40.035Z,16.58
2022-09-11T13:03:58.588Z,16.61
2022-09-11T13:05:02.381Z,16.63
2022-09-11T13:06:09.317Z,16.68
2022-09-11T13:07:27.736Z,16.69
2022-09-11T13:08:35.032Z,16.72
2022-09-11T13:09:46.593Z,16.75
2022-09-11T13:10:48.967Z,16.78
2022-09-11T13:12:17.333Z,16.82
2022-09-11T13:13:35.362Z,16.86
2022-09-11T13:14:37.875Z,16.89
2022-09-11T13:15:43.668Z,16.93
2022-09-11T13:16:46.133Z,16.97
2022-09-11T13:17:48.323Z,17.01
2022-09-11T13:18:50.550Z,17.06
2022-09-11T13:20:12.900Z,17.11
2022-09-11T13:21:20.236Z,17.16
2022-09-11T13:22:27.772Z,17.21
2022-09-11T13:23:33.236Z,17.27
2022-09-11T13:24:35.393Z,17.33
2022-09-11T13:25:40.850Z,17.36
2022-09-11T13:26:46.130Z,17.40
2022-09-11T13:27:50.109Z,17.44
2022-09-11T13:28:55.416Z,17.50
2022-09-11T13:30:01.418Z,17.54
2022-09-11T13:31:05.134Z,17.58
2022-09-11T13:32:13.496Z,17.65
2022-09-11T13:33:24.051Z,17.68
2022-09-11T13:34:28.497Z,17.72
2022-09-11T13:35:37.524Z,17.76
2022-09-11T13:36:40.612Z,17.79
2022-09-11T13:38:06.122Z,17.85
2022-09-11T13:39:12.190Z,17.88
2022-09-11T13:40:47.009Z,17.93
2022-09-11T13:42:08.763Z,17.96
2022-09-11T13:43:20.844Z,18.01
2022-09-11T13:44:47.214Z,18.06
2022-09-11T13:45:49.588Z,18.09
2022-09-11T13:46:52.530Z,18.15
2022-09-11T13:47:55.180Z,18.18
2022-09-11T13:49:17.536Z,18.21
2022-09-11T13:50:20.999Z,18.24
2022-09-11T13:51:27.910Z,18.26
2022-09-11T13:52:33.985Z,18.30
2022-09-11T13:53:36.230Z,18.32
2022-09-11T13:54:45.655Z,18.35
2022-09-11T13:55:54.054Z,18.38
2022-09-11T13:56:56.159Z,18.40
2022-09-11T13:58:00.850Z,18.43
2022-09-11T13:59:25.414Z,18.45
2022-09-11T14:00:38.438Z,18.49
2022-09-11T14:01:56.002Z,18.52
2022-09-11T14:03:00.151Z,18.56
2022-09-11T14:04:04.536Z,18.58
2022-09-11T14:05:06.616Z,18.60
2022-09-11T14:06:15.062Z,18.63
2022-09-11T14:07:22.020Z,18.65
2022-09-11T14:08:34.870Z,18.67
2022-09-11T14:09:37.339Z,18.71
2022-09-11T14:10:42.564Z,18.73
2022-09-11T14:11:45.020Z,18.76
2022-09-11T14:12:53.263Z,18.80
2022-09-11T14:14:07.160Z,18.82
2022-09-11T14:15:22.496Z,18.85
2022-09-11T14:16:32.404Z,18.90
2022-09-11T14:17:34.761Z,18.92
2022-09-11T14:18:49.208Z,18.95
2022-09-11T14:19:56.635Z,18.98
2022-09-11T14:21:06.372Z,19.01
2022-09-11T14:22:26.567Z,19.04
2022-09-11T14:23:29.781Z,19.07
2022-09-11T14:24:32.877Z,19.10
2022-09-11T14:25:35.742Z,19.14
2022-09-11T14:26:42.375Z,19.17
2022-09-11T14:27:45.279Z,19.18
2022-09-11T14:28:58.126Z,19.21
2022-09-11T14:30:02.737Z,19.23
2022-09-11T14:31:07.900Z,19.28
2022-09-11T14:32:33.940Z,19.28
2022-09-11T14:33:36.315Z,19.31
2022-09-11T14:34:38.464Z,19.33
2022-09-11T14:35:41.261Z,19.35
2022-09-11T14:36:48.013Z,19.37
2022-09-11T14:37:51.218Z,19.38
2022-09-11T14:38:54.302Z,19.40
2022-09-11T14:40:00.231Z,19.43
2022-09-11T14:41:06.110Z,19.45
2022-09-11T14:42:29.826Z,19.48